РУС

ENG

 
  Pireps - S7
 

Рейс SBI2157

  • Выполнял: Dmitry Schcurov
  • Аэропорт отправления: Domodedovo Airport (UUDD)
  • Аэропорт назначения: (URML)
  • Тип ВС: A320-214 (VQ-BPL)
  • Время полёта: 02.36
  • Дата полёта: 05.08.2020
  • Маршрут: FV R11 US L169 ST N39 UP B945 PERAT
  • Статус: Одобрен

Детали полёта
Gross Revenue:
(132 load / $ 200.00 per unit
$ 26, 400.00
Fuel Cost:
(6235 fuel used @ 5.1 / unit)
$ 31, 798.50


Дополнительная информация о полёте:

Лог

Aircraft Used in flight is Feelthere A320 CFM Airbus House
13:39 Boarding
13:39 Navigation Lights ON at 600 AGL
13:39 Brakes are On
13:41 Beacon Lights ON at 600 AGL
13:42 Engine 1 Started
13:43 Engine 2 Started
13:43Flaps 2 Selected at 600ft and 0kts
13:44 Brakes are Released
13:44 Spoilers Armed
13:44 Spoilers Disarmed
13:48 Taxi Lights ON at 600 AGL
13:54 Brakes are On
13:56 Brakes are Released
13:58 Landing Lights ON at 600 AGL
13:58 Taxi Lights OFF at 600 AGL
13:58 Strobe Lights ON at 600 AGL
13:59 Spoilers Armed
13:59 You Took off @ 158 Knots and Flaps at Position 2
Departure Weather
UUDD 051030Z 17004MPS 130V230 CAVOK 26/11 Q1020 R88/CLRD60 NOSIG
13:59 Landing Gear Up @ 163 Knots and 700 Feet
13:59 Spoilers Disarmed
14:01Flaps 1 Selected at 3550ft and 193kts
14:01Flaps Retracted at 3550ft and 193kts
14:02 Landing Lights OFF at 7270 AGL
14:16 TOC Reached
16:00Flaps 1 Selected at 8410ft and 224kts
16:00 Landing Lights ON at 8230 AGL
16:04Flaps 2 Selected at 2970ft and 190kts
16:04Flaps 3 Selected at 2970ft and 190kts
16:06Flaps 4 Selected at 1360ft and 145kts
16:06 Landing Gear Down @ 142 Knots and 1350 Feet
16:06 Spoilers Armed
16:06 Taxi Lights ON at 1360 AGL
16:07Flaps 5 Selected at 1400ft and 142kts
16:10 You Landed @ 134 Knots and with -150 Vertical Speed
Arrival Weather
URML 051030Z 02006MPS 340V040 9999 NSC 28/12 Q1008 R32/01//70 TEMPO 32011G18MPS RMK QFE755/1007
16:10 Spoilers Disarmed
16:11 Landing Lights OFF at 20 AGL
16:11 Strobe Lights OFF at 20 AGL
16:11Flaps Retracted at 20ft and 0kts
16:15 Brakes are On
16:15 Taxi Lights OFF at 20 AGL
16:15 Engine 1 Stoped
16:15 Engine 2 Stoped
16:15 Beacon Lights OFF at 20 AGL
Pirep logged with S7 Tracking 1.0.0.14



Общая оценка полета : 100%




Route Map



 
 
   
 
Новости

03.09.2020 - Полеты в MFS 2020

Спешим сообщить вам, что теперь наш S7 Pad поддерживается для полетов в новом симуляторе MFS 2020. В разделе Загрузки вы найдете FSUIPC7.rar
Инструкция для запуска прилагается!

   
 
Авторизация






Регистрация

Восстановить пароль?

Мы в соц. сетях

      



   
 





   
 


   
 


Яндекс.Метрика

www.va-s7.ru 2011-2020
Все права защищены.



Минуточку внимания!
Сайт va-s7.ru не является коммерческим проектом. Мы не имеем отношения к торговым маркам "S7" и "Globus" и их представителям.
Эмблемы на сайте являются собственностью соответствующих компаний.

аэронавигационная метеорологическая и любая другая информация с данного ресурса ни в коем случае не должна использоваться для реальных полетов